LERS/REU METAR and TAF weather

Enter ICAO airport designator
Station Type Date Time Source
LERS METAR 2020/11/25 22:30 UTC NOAA

LERS 252230Z AUTO 36006KT 9000 BKN050 13/11 Q1017


Station Type Date Time Source
LERS Decoded METAR 2020/11/25 22:30 UTC NOAA

Reus / Aeropuerto, Spain (LERS) 41-09N 001-10E 76M
Nov 25, 2020 - 05:30 PM EST / 2020.11.25 2230 UTC
Wind: from the N (360 degrees) at 7 MPH (6 KT):0
Visibility: 5 mile(s):0
Sky conditions: mostly cloudy
Temperature: 55 F (13 C)
Dew Point: 51 F (11 C)
Relative Humidity: 87%
Pressure (altimeter): 30.03 in. Hg (1017 hPa)
ob: LERS 252230Z AUTO 36006KT 9000 BKN050 13/11 Q1017
cycle: 22

Station Type Date Time Source
LERS TAF 2020/11/25 21:27 UTC NOAA

TAF LERS 252000Z 2521/2621 01005KT 9999 SCT025 TX19/2614Z TN10/2607Z PROB30
TEMPO 2522/2607 4000 BR BKN012
BECMG 2611/2613 07008KT

Example: see airport list